sensor_id;sensor_type;location;lat;lon;timestamp;pressure;altitude;pressure_sealevel;temperature;humidity
9460;BME280;4768;42.664;23.240;2023-02-17T00:01:58;35278.84;;;2.13;100.00
9460;BME280;4768;42.664;23.240;2023-02-17T00:04:26;36350.00;;;3.14;100.00
9460;BME280;4768;42.664;23.240;2023-02-17T00:06:53;64154.03;;;3.04;100.00
9460;BME280;4768;42.664;23.240;2023-02-17T00:09:21;61694.72;;;2.51;100.00
9460;BME280;4768;42.664;23.240;2023-02-17T00:11:48;52399.19;;;2.30;100.00
9460;BME280;4768;42.664;23.240;2023-02-17T00:14:15;41443.00;;;2.41;100.00
9460;BME280;4768;42.664;23.240;2023-02-17T00:16:43;61065.88;;;3.19;100.00
9460;BME280;4768;42.664;23.240;2023-02-17T00:19:11;86677.91;;;3.36;100.00
9460;BME280;4768;42.664;23.240;2023-02-17T00:21:51;83462.31;;;2.63;100.00
9460;BME280;4768;42.664;23.240;2023-02-17T00:24:18;73791.63;;;2.78;100.00
9460;BME280;4768;42.664;23.240;2023-02-17T00:26:46;65810.88;;;2.34;100.00
9460;BME280;4768;42.664;23.240;2023-02-17T00:29:14;61011.63;;;2.57;100.00
9460;BME280;4768;42.664;23.240;2023-02-17T00:31:41;63449.66;;;2.88;100.00
9460;BME280;4768;42.664;23.240;2023-02-17T00:34:07;67214.88;;;2.60;100.00
9460;BME280;4768;42.664;23.240;2023-02-17T00:36:34;59935.53;;;2.06;100.00
9460;BME280;4768;42.664;23.240;2023-02-17T00:39:01;53432.81;;;2.36;100.00
9460;BME280;4768;42.664;23.240;2023-02-17T00:41:29;52747.84;;;2.38;100.00
9460;BME280;4768;42.664;23.240;2023-02-17T00:43:57;54117.13;;;2.33;100.00
9460;BME280;4768;42.664;23.240;2023-02-17T00:46:25;53780.59;;;2.41;100.00
9460;BME280;4768;42.664;23.240;2023-02-17T00:48:52;61718.03;;;2.77;100.00
9460;BME280;4768;42.664;23.240;2023-02-17T00:51:19;72037.50;;;2.52;100.00
9460;BME280;4768;42.664;23.240;2023-02-17T00:53:46;81076.38;;;2.94;100.00
9460;BME280;4768;42.664;23.240;2023-02-17T00:56:13;122334.09;;;3.69;100.00
9460;BME280;4768;42.664;23.240;2023-02-17T00:58:40;168014.25;;;4.14;100.00
9460;BME280;4768;42.664;23.240;2023-02-17T01:01:09;168076.63;;;4.37;100.00
9460;BME280;4768;42.664;23.240;2023-02-17T01:03:36;168071.31;;;4.35;100.00
9460;BME280;4768;42.664;23.240;2023-02-17T01:06:06;168223.91;;;4.92;100.00
9460;BME280;4768;42.664;23.240;2023-02-17T01:08:33;167816.66;;;3.40;100.00
9460;BME280;4768;42.664;23.240;2023-02-17T01:10:59;167494.66;;;2.20;100.00
9460;BME280;4768;42.664;23.240;2023-02-17T01:13:26;92700.13;;;1.71;100.00
9460;BME280;4768;42.664;23.240;2023-02-17T01:15:53;55076.69;;;1.42;100.00
9460;BME280;4768;42.664;23.240;2023-02-17T01:18:22;33533.16;;;1.19;100.00
9460;BME280;4768;42.664;23.240;2023-02-17T01:20:50;20618.69;;;1.33;100.00
9460;BME280;4768;42.664;23.240;2023-02-17T01:23:17;13160.31;;;1.19;100.00
9460;BME280;4768;42.664;23.240;2023-02-17T01:25:45;11469.25;;;1.37;100.00
9460;BME280;4768;42.664;23.240;2023-02-17T01:28:15;13165.16;;;1.76;100.00
9460;BME280;4768;42.664;23.240;2023-02-17T01:30:42;30182.72;;;2.66;100.00
9460;BME280;4768;42.664;23.240;2023-02-17T01:33:09;37011.53;;;2.67;100.00
9460;BME280;4768;42.664;23.240;2023-02-17T01:35:37;44860.34;;;2.33;100.00
9460;BME280;4768;42.664;23.240;2023-02-17T01:38:03;46227.31;;;2.28;100.00
9460;BME280;4768;42.664;23.240;2023-02-17T01:40:30;51388.78;;;2.56;100.00
9460;BME280;4768;42.664;23.240;2023-02-17T01:42:57;56528.34;;;2.41;100.00
9460;BME280;4768;42.664;23.240;2023-02-17T01:45:36;57211.59;;;2.37;100.00
9460;BME280;4768;42.664;23.240;2023-02-17T01:48:07;57198.72;;;2.21;100.00
9460;BME280;4768;42.664;23.240;2023-02-17T01:50:41;50703.56;;;2.58;100.00
9460;BME280;4768;42.664;23.240;2023-02-17T01:53:11;96550.19;;;4.30;100.00
9460;BME280;4768;42.664;23.240;2023-02-17T01:55:40;168181.47;;;4.76;100.00
9460;BME280;4768;42.664;23.240;2023-02-17T01:58:10;168262.41;;;5.06;100.00
9460;BME280;4768;42.664;23.240;2023-02-17T02:00:39;168340.75;;;5.35;100.00
9460;BME280;4768;42.664;23.240;2023-02-17T02:03:09;168405.78;;;5.60;100.00
9460;BME280;4768;42.664;23.240;2023-02-17T02:05:40;168488.19;;;5.90;100.00
9460;BME280;4768;42.664;23.240;2023-02-17T02:08:08;168518.75;;;6.02;100.00
9460;BME280;4768;42.664;23.240;2023-02-17T02:10:35;168562.59;;;6.18;100.00
9460;BME280;4768;42.664;23.240;2023-02-17T02:13:02;168559.91;;;6.17;100.00
9460;BME280;4768;42.664;23.240;2023-02-17T02:15:32;168554.63;;;6.15;100.00
9460;BME280;4768;42.664;23.240;2023-02-17T02:18:20;168565.28;;;6.19;100.00
9460;BME280;4768;42.664;23.240;2023-02-17T02:23:54;168659.63;;;6.54;100.00
9460;BME280;4768;42.664;23.240;2023-02-17T02:29:56;167921.44;;;3.79;100.00
9460;BME280;4768;42.664;23.240;2023-02-17T02:32:41;167488.00;;;2.17;100.00
9460;BME280;4768;42.664;23.240;2023-02-17T02:35:13;167440.34;;;1.99;100.00
9460;BME280;4768;42.664;23.240;2023-02-17T02:37:45;98266.84;;;1.80;100.00
9460;BME280;4768;42.664;23.240;2023-02-17T02:40:14;61624.88;;;1.72;100.00
9460;BME280;4768;42.664;23.240;2023-02-17T02:42:42;41743.16;;;1.66;100.00
9460;BME280;4768;42.664;23.240;2023-02-17T02:45:10;29123.13;;;1.61;100.00
9460;BME280;4768;42.664;23.240;2023-02-17T02:47:44;23000.56;;;1.55;100.00
9460;BME280;4768;42.664;23.240;2023-02-17T02:50:13;15873.75;;;1.52;100.00
9460;BME280;4768;42.664;23.240;2023-02-17T02:52:47;10115.16;;;1.19;100.00
9460;BME280;4768;42.664;23.240;2023-02-17T02:55:22;4032.44;;;1.33;100.00
9460;BME280;4768;42.664;23.240;2023-02-17T02:57:56;5380.41;;;2.01;100.00
9460;BME280;4768;42.664;23.240;2023-02-17T03:00:32;53616.88;;;4.80;100.00
9460;BME280;4768;42.664;23.240;2023-02-17T03:03:07;168375.28;;;5.48;100.00
9460;BME280;4768;42.664;23.240;2023-02-17T03:05:38;168506.81;;;5.97;100.00
9460;BME280;4768;42.664;23.240;2023-02-17T03:08:12;168542.66;;;6.11;100.00
9460;BME280;4768;42.664;23.240;2023-02-17T03:10:44;168506.81;;;5.97;100.00
9460;BME280;4768;42.664;23.240;2023-02-17T03:13:11;168516.09;;;6.01;100.00
9460;BME280;4768;42.664;23.240;2023-02-17T03:15:38;168508.13;;;5.98;100.00
9460;BME280;4768;42.664;23.240;2023-02-17T03:18:06;168457.69;;;5.79;100.00
9460;BME280;4768;42.664;23.240;2023-02-17T03:20:36;168423.09;;;5.66;100.00
9460;BME280;4768;42.664;23.240;2023-02-17T03:23:04;168436.34;;;5.71;100.00
9460;BME280;4768;42.664;23.240;2023-02-17T03:25:31;168470.94;;;5.84;100.00
9460;BME280;4768;42.664;23.240;2023-02-17T03:27:58;168505.50;;;5.97;100.00
9460;BME280;4768;42.664;23.240;2023-02-17T03:30:24;168545.34;;;6.12;100.00
9460;BME280;4768;42.664;23.240;2023-02-17T03:32:51;168558.63;;;6.17;100.00
9460;BME280;4768;42.664;23.240;2023-02-17T03:35:19;168538.69;;;6.09;100.00
9460;BME280;4768;42.664;23.240;2023-02-17T03:37:46;168561.28;;;6.18;100.00
9460;BME280;4768;42.664;23.240;2023-02-17T03:40:13;168571.88;;;6.22;100.00
9460;BME280;4768;42.664;23.240;2023-02-17T03:42:39;168647.66;;;6.50;100.00
9460;BME280;4768;42.664;23.240;2023-02-17T03:45:07;168739.34;;;6.84;100.00
9460;BME280;4768;42.664;23.240;2023-02-17T03:47:33;168731.38;;;6.81;100.00
9460;BME280;4768;42.664;23.240;2023-02-17T03:50:00;168707.44;;;6.72;100.00
9460;BME280;4768;42.664;23.240;2023-02-17T03:52:28;168671.56;;;6.59;100.00
9460;BME280;4768;42.664;23.240;2023-02-17T03:54:55;168710.06;;;6.73;100.00
9460;BME280;4768;42.664;23.240;2023-02-17T03:57:21;168675.56;;;6.60;100.00
9460;BME280;4768;42.664;23.240;2023-02-17T03:59:48;168393.84;;;5.55;100.00
9460;BME280;4768;42.664;23.240;2023-02-17T04:02:15;167608.59;;;2.62;100.00
9460;BME280;4768;42.664;23.240;2023-02-17T04:04:42;167309.25;;;1.50;100.00
9460;BME280;4768;42.664;23.240;2023-02-17T04:07:08;111737.97;;;1.18;100.00
9460;BME280;4768;42.664;23.240;2023-02-17T04:09:36;61247.13;;;1.34;100.00
9460;BME280;4768;42.664;23.240;2023-02-17T04:12:04;38992.59;;;1.30;100.00
9460;BME280;4768;42.664;23.240;2023-02-17T04:14:30;24009.66;;;1.17;100.00
9460;BME280;4768;42.664;23.240;2023-02-17T04:16:57;14513.78;;;1.11;100.00
9460;BME280;4768;42.664;23.240;2023-02-17T04:19:24;7073.13;;;0.98;100.00
9460;BME280;4768;42.664;23.240;2023-02-17T04:21:51;1000.34;;;0.86;100.00
9460;BME280;4768;42.664;23.240;2023-02-17T04:24:17;-4386.94;;;0.79;100.00
9460;BME280;4768;42.664;23.240;2023-02-17T04:26:45;-8758.00;;;0.78;100.00
9460;BME280;4768;42.664;23.240;2023-02-17T04:29:12;-9431.41;;;0.76;100.00
9460;BME280;4768;42.664;23.240;2023-02-17T04:31:39;-9430.97;;;0.74;100.00
9460;BME280;4768;42.664;23.240;2023-02-17T04:34:05;-9428.44;;;0.65;100.00
9460;BME280;4768;42.664;23.240;2023-02-17T04:36:32;-9427.59;;;0.62;100.00
9460;BME280;4768;42.664;23.240;2023-02-17T04:38:59;-9426.47;;;0.58;100.00
9460;BME280;4768;42.664;23.240;2023-02-17T04:41:26;-9420.69;;;0.38;100.00
9460;BME280;4768;42.664;23.240;2023-02-17T04:43:54;-9417.44;;;0.27;100.00
9460;BME280;4768;42.664;23.240;2023-02-17T04:46:21;-9416.75;;;0.24;100.00
9460;BME280;4768;42.664;23.240;2023-02-17T04:48:47;-9418.56;;;0.31;100.00
9460;BME280;4768;42.664;23.240;2023-02-17T04:51:14;-9419.13;;;0.33;100.00
9460;BME280;4768;42.664;23.240;2023-02-17T04:53:41;-9419.84;;;0.35;100.00
9460;BME280;4768;42.664;23.240;2023-02-17T04:56:08;-9419.56;;;0.34;100.00
9460;BME280;4768;42.664;23.240;2023-02-17T04:58:35;-9418.56;;;0.31;100.00
9460;BME280;4768;42.664;23.240;2023-02-17T05:01:03;-9419.00;;;0.32;100.00
9460;BME280;4768;42.664;23.240;2023-02-17T05:03:30;-9417.03;;;0.25;100.00
9460;BME280;4768;42.664;23.240;2023-02-17T05:05:57;-9414.91;;;0.18;100.00
9460;BME280;4768;42.664;23.240;2023-02-17T05:08:23;-9411.53;;;0.06;100.00
9460;BME280;4768;42.664;23.240;2023-02-17T05:10:50;-9412.66;;;0.10;100.00
9460;BME280;4768;42.664;23.240;2023-02-17T05:13:17;-9411.13;;;0.04;100.00
9460;BME280;4768;42.664;23.240;2023-02-17T05:15:45;-9419.13;;;0.33;100.00
9460;BME280;4768;42.664;23.240;2023-02-17T05:18:13;-9416.88;;;0.25;100.00
9460;BME280;4768;42.664;23.240;2023-02-17T05:20:40;-9424.50;;;0.51;100.00
9460;BME280;4768;42.664;23.240;2023-02-17T05:23:07;-9428.56;;;0.66;100.00
9460;BME280;4768;42.664;23.240;2023-02-17T05:25:34;-9432.53;;;0.80;100.00
9460;BME280;4768;42.664;23.240;2023-02-17T05:28:00;-9431.53;;;0.76;100.00
9460;BME280;4768;42.664;23.240;2023-02-17T05:30:27;-9430.84;;;0.74;100.00
9460;BME280;4768;42.664;23.240;2023-02-17T05:32:54;-9426.31;;;0.58;100.00
9460;BME280;4768;42.664;23.240;2023-02-17T05:35:22;-9422.53;;;0.45;100.00
9460;BME280;4768;42.664;23.240;2023-02-17T05:37:49;-9420.69;;;0.38;100.00
9460;BME280;4768;42.664;23.240;2023-02-17T05:40:16;-9421.38;;;0.41;100.00
9460;BME280;4768;42.664;23.240;2023-02-17T05:42:43;-9420.53;;;0.38;100.00
9460;BME280;4768;42.664;23.240;2023-02-17T05:45:10;-9420.53;;;0.38;100.00
9460;BME280;4768;42.664;23.240;2023-02-17T05:47:37;-9423.09;;;0.47;100.00
9460;BME280;4768;42.664;23.240;2023-02-17T05:50:04;-9419.97;;;0.36;100.00
9460;BME280;4768;42.664;23.240;2023-02-17T05:52:33;-9420.13;;;0.36;100.00
9460;BME280;4768;42.664;23.240;2023-02-17T05:55:00;-9422.66;;;0.45;100.00
9460;BME280;4768;42.664;23.240;2023-02-17T05:57:29;-9427.03;;;0.60;100.00
9460;BME280;4768;42.664;23.240;2023-02-17T05:59:56;-9435.47;;;0.90;100.00
9460;BME280;4768;42.664;23.240;2023-02-17T06:02:23;-9455.22;;;1.59;100.00
9460;BME280;4768;42.664;23.240;2023-02-17T06:04:50;-9491.19;;;2.86;100.00
9460;BME280;4768;42.664;23.240;2023-02-17T06:07:17;-9504.88;;;3.34;100.00
9460;BME280;4768;42.664;23.240;2023-02-17T06:09:45;-1061.31;;;3.56;100.00
9460;BME280;4768;42.664;23.240;2023-02-17T06:12:11;12839.81;;;3.44;100.00
9460;BME280;4768;42.664;23.240;2023-02-17T06:14:38;12835.59;;;2.91;100.00
9460;BME280;4768;42.664;23.240;2023-02-17T06:17:05;3351.97;;;2.02;100.00
9460;BME280;4768;42.664;23.240;2023-02-17T06:19:31;5713.88;;;3.29;100.00
9460;BME280;4768;42.664;23.240;2023-02-17T06:21:58;39149.00;;;4.35;100.00
9460;BME280;4768;42.664;23.240;2023-02-17T06:24:25;118063.41;;;5.27;100.00
9460;BME280;4768;42.664;23.240;2023-02-17T06:26:53;168356.69;;;5.41;100.00
9460;BME280;4768;42.664;23.240;2023-02-17T06:29:19;168590.50;;;6.28;100.00
9460;BME280;4768;42.664;23.240;2023-02-17T06:31:46;168760.59;;;6.92;100.00
9460;BME280;4768;42.664;23.240;2023-02-17T06:34:13;168890.91;;;7.40;100.00
9460;BME280;4768;42.664;23.240;2023-02-17T06:36:39;169005.28;;;7.83;100.00
9460;BME280;4768;42.664;23.240;2023-02-17T06:39:06;169057.13;;;8.02;100.00
9460;BME280;4768;42.664;23.240;2023-02-17T06:41:33;169073.09;;;8.08;100.00
9460;BME280;4768;42.664;23.240;2023-02-17T06:44:01;169075.78;;;8.09;100.00
9460;BME280;4768;42.664;23.240;2023-02-17T06:46:28;169135.69;;;8.31;100.00
9460;BME280;4768;42.664;23.240;2023-02-17T06:48:54;169170.31;;;8.44;100.00
9460;BME280;4768;42.664;23.240;2023-02-17T06:51:21;169163.63;;;8.42;100.00
9460;BME280;4768;42.664;23.240;2023-02-17T06:53:48;169166.31;;;8.43;100.00
9460;BME280;4768;42.664;23.240;2023-02-17T06:56:15;169194.25;;;8.53;100.00
9460;BME280;4768;42.664;23.240;2023-02-17T06:58:41;169212.84;;;8.60;100.00
9460;BME280;4768;42.664;23.240;2023-02-17T07:01:15;169207.53;;;8.58;100.00
9460;BME280;4768;42.664;23.240;2023-02-17T07:03:42;169231.50;;;8.67;100.00
9460;BME280;4768;42.664;23.240;2023-02-17T07:06:09;169263.44;;;8.79;100.00
9460;BME280;4768;42.664;23.240;2023-02-17T07:08:35;169300.75;;;8.93;100.00
9460;BME280;4768;42.664;23.240;2023-02-17T07:11:04;169260.75;;;8.78;100.00
9460;BME280;4768;42.664;23.240;2023-02-17T07:13:31;168985.31;;;7.75;100.00
9460;BME280;4768;42.664;23.240;2023-02-17T07:15:58;169145.00;;;8.35;100.00
9460;BME280;4768;42.664;23.240;2023-02-17T07:18:26;168998.59;;;7.80;100.00
9460;BME280;4768;42.664;23.240;2023-02-17T07:20:53;168988.00;;;7.76;100.00
9460;BME280;4768;42.664;23.240;2023-02-17T07:23:19;169232.81;;;8.67;100.00
9460;BME280;4768;42.664;23.240;2023-02-17T07:25:46;169335.31;;;9.06;100.00
9460;BME280;4768;42.664;23.240;2023-02-17T07:28:13;168870.94;;;7.33;100.00
9460;BME280;4768;42.664;23.240;2023-02-17T07:30:40;168648.97;;;6.50;100.00
9460;BME280;4768;42.664;23.240;2023-02-17T07:33:07;168536.00;;;6.08;100.00
9460;BME280;4768;42.664;23.240;2023-02-17T07:35:39;168650.28;;;6.51;100.00
9460;BME280;4768;42.664;23.240;2023-02-17T07:38:08;168589.19;;;6.28;100.00
9460;BME280;4768;42.664;23.240;2023-02-17T07:40:36;168542.66;;;6.11;100.00
9460;BME280;4768;42.664;23.240;2023-02-17T07:43:04;168589.19;;;6.28;100.00
9460;BME280;4768;42.664;23.240;2023-02-17T07:45:31;168648.97;;;6.50;100.00
9460;BME280;4768;42.664;23.240;2023-02-17T07:47:57;168586.50;;;6.27;100.00
9460;BME280;4768;42.664;23.240;2023-02-17T07:50:24;168599.78;;;6.32;100.00
9460;BME280;4768;42.664;23.240;2023-02-17T07:52:52;168630.34;;;6.43;100.00
9460;BME280;4768;42.664;23.240;2023-02-17T07:55:19;169086.44;;;8.13;100.00
9460;BME280;4768;42.664;23.240;2023-02-17T07:57:45;169234.19;;;8.68;100.00
9460;BME280;4768;42.664;23.240;2023-02-17T08:00:13;169101.09;;;8.18;100.00
9460;BME280;4768;42.664;23.240;2023-02-17T08:02:40;169079.78;;;8.11;100.00
9460;BME280;4768;42.664;23.240;2023-02-17T08:05:07;169399.22;;;9.29;100.00
9460;BME280;4768;42.664;23.240;2023-02-17T08:07:34;169375.25;;;9.20;100.00
9460;BME280;4768;42.664;23.240;2023-02-17T08:10:02;169479.16;;;9.59;100.00
9460;BME280;4768;42.664;23.240;2023-02-17T08:12:46;169784.25;;;10.72;100.00
9460;BME280;4768;42.664;23.240;2023-02-17T08:15:42;169838.91;;;10.93;100.00
9460;BME280;4768;42.664;23.240;2023-02-17T08:18:09;170054.97;;;11.73;96.95
9460;BME280;4768;42.664;23.240;2023-02-17T08:20:36;170029.59;;;11.63;80.63
9460;BME280;4768;42.664;23.240;2023-02-17T08:23:02;169918.88;;;11.22;78.63
9460;BME280;4768;42.664;23.240;2023-02-17T08:25:32;170106.97;;;11.92;75.33
9460;BME280;4768;42.664;23.240;2023-02-17T08:27:59;170272.38;;;12.53;70.11
9460;BME280;4768;42.664;23.240;2023-02-17T08:30:26;170171.00;;;12.16;63.42
9460;BME280;4768;42.664;23.240;2023-02-17T08:32:52;170102.97;;;11.91;67.44
9460;BME280;4768;42.664;23.240;2023-02-17T08:35:19;170212.34;;;12.31;64.27
9460;BME280;4768;42.664;23.240;2023-02-17T08:37:47;170193.69;;;12.24;62.89
9460;BME280;4768;42.664;23.240;2023-02-17T08:40:14;170273.75;;;12.54;63.38
9460;BME280;4768;42.664;23.240;2023-02-17T08:42:43;170114.97;;;11.95;64.89
9460;BME280;4768;42.664;23.240;2023-02-17T08:45:12;170221.72;;;12.35;64.97
9460;BME280;4768;42.664;23.240;2023-02-17T08:47:39;170315.09;;;12.69;63.26
9460;BME280;4768;42.664;23.240;2023-02-17T08:50:07;170331.09;;;12.75;62.89
9460;BME280;4768;42.664;23.240;2023-02-17T08:52:34;170213.72;;;12.32;60.57
9460;BME280;4768;42.664;23.240;2023-02-17T08:55:01;170131.00;;;12.01;60.72
9460;BME280;4768;42.664;23.240;2023-02-17T08:57:28;170070.97;;;11.79;63.22
9460;BME280;4768;42.664;23.240;2023-02-17T08:59:56;170122.97;;;11.98;60.85
9460;BME280;4768;42.664;23.240;2023-02-17T09:02:23;170167.00;;;12.14;61.95
9460;BME280;4768;42.664;23.240;2023-02-17T09:04:49;170187.00;;;12.22;60.55
9460;BME280;4768;42.664;23.240;2023-02-17T09:07:16;170236.34;;;12.40;59.41
9460;BME280;4768;42.664;23.240;2023-02-17T09:09:43;170208.34;;;12.30;58.21
9460;BME280;4768;42.664;23.240;2023-02-17T09:12:09;170179.00;;;12.19;58.02
9460;BME280;4768;42.664;23.240;2023-02-17T09:14:36;170187.00;;;12.22;59.54
9460;BME280;4768;42.664;23.240;2023-02-17T09:17:04;170251.06;;;12.46;59.89
9460;BME280;4768;42.664;23.240;2023-02-17T09:19:31;170204.34;;;12.28;58.62
9460;BME280;4768;42.664;23.240;2023-02-17T09:21:58;170320.47;;;12.71;60.24
9460;BME280;4768;42.664;23.240;2023-02-17T09:24:24;170284.38;;;12.58;58.42
9460;BME280;4768;42.664;23.240;2023-02-17T09:26:51;170235.03;;;12.40;55.38
9460;BME280;4768;42.664;23.240;2023-02-17T09:29:18;170263.06;;;12.50;56.54
9460;BME280;4768;42.664;23.240;2023-02-17T09:31:45;170305.78;;;12.66;56.65
9460;BME280;4768;42.664;23.240;2023-02-17T09:34:13;170373.88;;;12.91;55.60
9460;BME280;4768;42.664;23.240;2023-02-17T09:36:40;170324.47;;;12.73;54.32
9460;BME280;4768;42.664;23.240;2023-02-17T09:39:08;170204.34;;;12.28;53.74
9460;BME280;4768;42.664;23.240;2023-02-17T09:41:37;170311.09;;;12.68;55.69
9460;BME280;4768;42.664;23.240;2023-02-17T09:44:05;170396.59;;;13.00;53.92
9460;BME280;4768;42.664;23.240;2023-02-17T09:46:42;170389.91;;;12.97;51.94
9460;BME280;4768;42.664;23.240;2023-02-17T09:49:14;170375.19;;;12.92;52.69
9460;BME280;4768;42.664;23.240;2023-02-17T09:51:45;170431.25;;;13.12;50.43
9460;BME280;4768;42.664;23.240;2023-02-17T09:54:16;170355.19;;;12.84;50.93
9460;BME280;4768;42.664;23.240;2023-02-17T09:56:46;170299.06;;;12.63;49.37
9460;BME280;4768;42.664;23.240;2023-02-17T09:59:15;170355.19;;;12.84;51.38
9460;BME280;4768;42.664;23.240;2023-02-17T10:01:45;170391.22;;;12.98;54.05
9460;BME280;4768;42.664;23.240;2023-02-17T10:04:18;170253.72;;;12.47;51.98
9460;BME280;4768;42.664;23.240;2023-02-17T10:06:48;170273.75;;;12.54;51.70
9460;BME280;4768;42.664;23.240;2023-02-17T10:09:19;170397.91;;;13.00;52.59
9460;BME280;4768;42.664;23.240;2023-02-17T10:11:52;170228.34;;;12.37;51.57
9460;BME280;4768;42.664;23.240;2023-02-17T10:14:23;170260.38;;;12.49;53.11
9460;BME280;4768;42.664;23.240;2023-02-17T10:16:58;170231.03;;;12.38;52.26
9460;BME280;4768;42.664;23.240;2023-02-17T10:19:31;170252.38;;;12.46;51.94
9460;BME280;4768;42.664;23.240;2023-02-17T10:22:06;170224.34;;;12.36;51.13
9460;BME280;4768;42.664;23.240;2023-02-17T10:24:34;170319.09;;;12.71;52.66
9460;BME280;4768;42.664;23.240;2023-02-17T10:27:14;170407.22;;;13.03;52.46
9460;BME280;4768;42.664;23.240;2023-02-17T10:29:51;170291.06;;;12.60;51.25
9460;BME280;4768;42.664;23.240;2023-02-17T10:32:22;170349.81;;;12.82;54.76
9460;BME280;4768;42.664;23.240;2023-02-17T10:35:02;170399.22;;;13.01;52.27
9460;BME280;4768;42.664;23.240;2023-02-17T10:37:43;170308.44;;;12.67;49.83
9460;BME280;4768;42.664;23.240;2023-02-17T10:40:18;170200.34;;;12.27;51.20
9460;BME280;4768;42.664;23.240;2023-02-17T10:42:47;170217.72;;;12.33;52.00
9460;BME280;4768;42.664;23.240;2023-02-17T10:45:22;170355.19;;;12.84;51.93
9460;BME280;4768;42.664;23.240;2023-02-17T10:47:58;170425.94;;;13.10;50.64
9460;BME280;4768;42.664;23.240;2023-02-17T10:50:29;170443.25;;;13.17;50.49
9460;BME280;4768;42.664;23.240;2023-02-17T10:52:56;170291.06;;;12.60;49.31
9460;BME280;4768;42.664;23.240;2023-02-17T10:55:31;170375.19;;;12.92;50.43
9460;BME280;4768;42.664;23.240;2023-02-17T10:58:03;170265.75;;;12.51;51.18
9460;BME280;4768;42.664;23.240;2023-02-17T11:00:30;170253.72;;;12.47;50.19
9460;BME280;4768;42.664;23.240;2023-02-17T11:02:57;170229.72;;;12.38;50.63
9460;BME280;4768;42.664;23.240;2023-02-17T11:05:26;170265.75;;;12.51;51.77
9460;BME280;4768;42.664;23.240;2023-02-17T11:07:58;170303.09;;;12.65;51.44
9460;BME280;4768;42.664;23.240;2023-02-17T11:10:28;170344.47;;;12.80;52.20
9460;BME280;4768;42.664;23.240;2023-02-17T11:12:55;170261.75;;;12.50;52.39
9460;BME280;4768;42.664;23.240;2023-02-17T11:15:26;170388.56;;;12.97;54.35
9460;BME280;4768;42.664;23.240;2023-02-17T11:17:55;170428.63;;;13.11;52.44
9460;BME280;4768;42.664;23.240;2023-02-17T11:20:32;170335.09;;;12.77;53.66
9460;BME280;4768;42.664;23.240;2023-02-17T11:23:06;170284.38;;;12.58;53.97
9460;BME280;4768;42.664;23.240;2023-02-17T11:25:35;170307.09;;;12.66;53.71
9460;BME280;4768;42.664;23.240;2023-02-17T11:28:05;170289.75;;;12.60;54.28
9460;BME280;4768;42.664;23.240;2023-02-17T11:30:34;170335.09;;;12.77;56.96
9460;BME280;4768;42.664;23.240;2023-02-17T11:33:11;170444.63;;;13.17;55.07
9460;BME280;4768;42.664;23.240;2023-02-17T11:35:49;170562.09;;;13.61;55.08
9460;BME280;4768;42.664;23.240;2023-02-17T11:38:20;170566.09;;;13.62;53.31
9460;BME280;4768;42.664;23.240;2023-02-17T11:40:55;170543.44;;;13.54;54.90
9460;BME280;4768;42.664;23.240;2023-02-17T11:43:22;170368.56;;;12.89;56.06
9460;BME280;4768;42.664;23.240;2023-02-17T11:45:57;170289.75;;;12.60;57.42
9460;BME280;4768;42.664;23.240;2023-02-17T11:48:52;170535.44;;;13.51;58.21
9460;BME280;4768;42.664;23.240;2023-02-17T11:51:26;170519.41;;;13.45;57.03
9460;BME280;4768;42.664;23.240;2023-02-17T11:54:03;170612.84;;;13.80;57.60
9460;BME280;4768;42.664;23.240;2023-02-17T11:56:36;170583.50;;;13.69;56.78
9460;BME280;4768;42.664;23.240;2023-02-17T11:59:17;170508.72;;;13.41;57.31
9460;BME280;4768;42.664;23.240;2023-02-17T12:02:02;170566.09;;;13.62;55.67
9460;BME280;4768;42.664;23.240;2023-02-17T12:04:32;170603.53;;;13.76;57.23
9460;BME280;4768;42.664;23.240;2023-02-17T12:07:19;170441.94;;;13.16;58.83
9460;BME280;4768;42.664;23.240;2023-02-17T12:09:59;170523.41;;;13.47;58.29
9460;BME280;4768;42.664;23.240;2023-02-17T12:12:35;170576.81;;;13.66;58.76
9460;BME280;4768;42.664;23.240;2023-02-17T12:15:22;170578.13;;;13.67;59.65
9460;BME280;4768;42.664;23.240;2023-02-17T12:18:03;170429.94;;;13.12;57.52
9460;BME280;4768;42.664;23.240;2023-02-17T12:20:40;170441.94;;;13.16;59.83
9460;BME280;4768;42.664;23.240;2023-02-17T12:23:29;170420.59;;;13.08;59.98
9460;BME280;4768;42.664;23.240;2023-02-17T12:26:02;170376.56;;;12.92;59.53
9460;BME280;4768;42.664;23.240;2023-02-17T12:28:44;170548.75;;;13.56;63.08
9460;BME280;4768;42.664;23.240;2023-02-17T12:31:23;170579.50;;;13.67;58.53
9460;BME280;4768;42.664;23.240;2023-02-17T12:33:58;170610.16;;;13.79;57.16
9460;BME280;4768;42.664;23.240;2023-02-17T12:36:30;170590.13;;;13.71;57.03
9460;BME280;4768;42.664;23.240;2023-02-17T12:39:00;170523.41;;;13.47;56.18
9460;BME280;4768;42.664;23.240;2023-02-17T12:41:32;170528.72;;;13.49;60.27
9460;BME280;4768;42.664;23.240;2023-02-17T12:44:03;170449.94;;;13.19;57.99
9460;BME280;4768;42.664;23.240;2023-02-17T12:46:34;170436.63;;;13.14;58.79
9460;BME280;4768;42.664;23.240;2023-02-17T12:49:08;170437.94;;;13.15;60.08
9460;BME280;4768;42.664;23.240;2023-02-17T12:51:40;170448.63;;;13.19;58.62
9460;BME280;4768;42.664;23.240;2023-02-17T12:54:16;170424.59;;;13.10;59.79
9460;BME280;4768;42.664;23.240;2023-02-17T12:56:54;170381.88;;;12.94;58.74
9460;BME280;4768;42.664;23.240;2023-02-17T12:59:26;170384.56;;;12.95;58.35
9460;BME280;4768;42.664;23.240;2023-02-17T13:01:59;170444.63;;;13.17;57.90
9460;BME280;4768;42.664;23.240;2023-02-17T13:04:27;170479.34;;;13.30;60.23
9460;BME280;4768;42.664;23.240;2023-02-17T13:07:14;170459.28;;;13.23;57.10
9460;BME280;4768;42.664;23.240;2023-02-17T13:09:44;170526.03;;;13.48;57.53
9460;BME280;4768;42.664;23.240;2023-02-17T13:12:29;170611.53;;;13.79;56.76
9460;BME280;4768;42.664;23.240;2023-02-17T13:14:58;170448.63;;;13.19;56.89
9460;BME280;4768;42.664;23.240;2023-02-17T13:17:28;170452.63;;;13.20;57.62
9460;BME280;4768;42.664;23.240;2023-02-17T13:20:26;170604.84;;;13.77;58.53
9460;BME280;4768;42.664;23.240;2023-02-17T13:23:05;170586.13;;;13.70;55.67
9460;BME280;4768;42.664;23.240;2023-02-17T13:25:34;170586.13;;;13.70;54.95